< < Back
Terminal Aerodrome Forecast


Current Version              Previous Versions:   1  2  3  4  5  6  7  8  9  

Terminal Aerodrome Forecast

554
FTUS42 KFFC 292325
TAFATL
TAF
KATL 292325Z 3000/3106 07012KT P6SM FEW045 SCT250
     FM300300 07006KT P6SM FEW250
     FM301500 08007KT P6SM FEW030
     FM301800 07012G18KT P6SM SCT045 SCT250=

Latest METAR

403
SAUS70 KWBC 300700 RRD
MTRATL
METAR KATL 300652Z 09005KT 10SM FEW050 25/20 A3009 RMK AO2 SLP177
T02500200


USA.gov is the U.S. government's official web portal to all federal, state and local government web resources and services.